createdAt,value
2023-04-16T00:01:06.366Z,6.85
2023-04-16T00:04:09.405Z,6.45
2023-04-16T00:07:11.980Z,7.03
2023-04-16T00:10:14.924Z,6.57
2023-04-16T00:13:17.817Z,6.67
2023-04-16T00:16:20.720Z,6.40
2023-04-16T00:19:23.249Z,6.10
2023-04-16T00:22:26.278Z,5.55
2023-04-16T00:25:28.837Z,5.37
2023-04-16T00:28:31.625Z,5.57
2023-04-16T00:31:34.286Z,5.05
2023-04-16T00:34:38.888Z,5.20
2023-04-16T00:37:41.480Z,4.90
2023-04-16T00:40:44.544Z,4.68
2023-04-16T00:43:47.088Z,4.53
2023-04-16T00:46:50.643Z,5.05
2023-04-16T00:49:53.175Z,4.30
2023-04-16T00:52:56.802Z,5.03
2023-04-16T00:55:59.510Z,5.10
2023-04-16T00:59:02.671Z,4.77
2023-04-16T01:02:05.695Z,4.95
2023-04-16T01:05:09.267Z,5.18
2023-04-16T01:08:17.597Z,5.28
2023-04-16T01:11:21.006Z,5.95
2023-04-16T01:14:23.505Z,5.30
2023-04-16T01:17:26.358Z,5.57
2023-04-16T01:20:29.607Z,5.95
2023-04-16T01:23:32.513Z,6.50
2023-04-16T01:26:35.088Z,6.40
2023-04-16T01:29:38.606Z,5.93
2023-04-16T01:32:41.278Z,5.57
2023-04-16T01:35:44.090Z,6.20
2023-04-16T01:38:46.712Z,6.40
2023-04-16T01:41:49.871Z,6.22
2023-04-16T01:44:52.375Z,6.57
2023-04-16T01:47:55.293Z,6.40
2023-04-16T01:50:58.577Z,7.22
2023-04-16T01:54:01.723Z,6.60
2023-04-16T01:57:04.391Z,6.72
2023-04-16T02:00:08.725Z,7.03
2023-04-16T02:03:21.542Z,7.03
2023-04-16T02:06:24.845Z,6.82
2023-04-16T02:09:27.431Z,6.68
2023-04-16T02:12:31.153Z,6.30
2023-04-16T02:15:33.801Z,6.77
2023-04-16T02:18:36.840Z,6.93
2023-04-16T02:21:41.754Z,6.40
2023-04-16T02:24:44.356Z,5.87
2023-04-16T02:27:47.361Z,5.90
2023-04-16T02:30:51.158Z,7.00
2023-04-16T02:33:54.589Z,6.55
2023-04-16T02:36:58.380Z,7.10
2023-04-16T02:40:01.383Z,6.55
2023-04-16T02:43:04.600Z,5.90
2023-04-16T02:46:07.599Z,6.00
2023-04-16T02:49:10.788Z,6.62
2023-04-16T02:52:15.548Z,6.68
2023-04-16T02:55:18.280Z,5.50
2023-04-16T02:58:22.099Z,6.25
2023-04-16T03:01:24.624Z,6.40
2023-04-16T03:04:27.591Z,6.37
2023-04-16T03:07:30.268Z,5.70
2023-04-16T03:10:33.328Z,5.53
2023-04-16T03:13:36.304Z,5.82
2023-04-16T03:16:39.126Z,5.90
2023-04-16T03:19:41.742Z,6.00
2023-04-16T03:22:44.737Z,6.47
2023-04-16T03:25:48.592Z,5.78
2023-04-16T03:28:51.933Z,5.50
2023-04-16T03:31:54.544Z,5.30
2023-04-16T03:34:58.124Z,5.68
2023-04-16T03:38:01.114Z,5.30
2023-04-16T03:41:04.213Z,6.03
2023-04-16T03:44:07.211Z,5.45
2023-04-16T03:47:10.508Z,5.53
2023-04-16T03:50:13.822Z,5.25
2023-04-16T03:53:17.114Z,5.97
2023-04-16T03:56:19.764Z,5.55
2023-04-16T03:59:22.827Z,5.75
2023-04-16T04:02:26.433Z,5.43
2023-04-16T04:05:29.387Z,5.57
2023-04-16T04:08:34.031Z,5.32
2023-04-16T04:11:38.260Z,5.62
2023-04-16T04:14:40.849Z,5.22
2023-04-16T04:17:43.864Z,6.83
2023-04-16T04:20:46.787Z,5.57
2023-04-16T04:23:49.931Z,5.28
2023-04-16T04:26:52.427Z,5.53
2023-04-16T04:29:55.385Z,5.37
2023-04-16T04:32:58.405Z,5.70
2023-04-16T04:36:01.629Z,6.20
2023-04-16T04:39:04.409Z,5.97
2023-04-16T04:42:08.703Z,5.68
2023-04-16T04:45:11.698Z,5.55
2023-04-16T04:48:16.604Z,5.37
2023-04-16T04:51:19.724Z,5.55
2023-04-16T04:54:22.841Z,5.50
2023-04-16T04:57:25.539Z,5.40
2023-04-16T05:00:29.337Z,4.95
2023-04-16T05:03:32.333Z,4.50
2023-04-16T05:06:35.137Z,4.57
2023-04-16T05:09:38.019Z,4.87
2023-04-16T05:12:41.374Z,4.70
2023-04-16T05:15:45.061Z,4.53
2023-04-16T05:18:47.890Z,4.70
2023-04-16T05:21:50.459Z,4.35
2023-04-16T05:24:53.404Z,5.20
2023-04-16T05:27:55.999Z,4.47
2023-04-16T05:30:58.925Z,4.03
2023-04-16T05:34:01.409Z,4.50
2023-04-16T05:37:04.219Z,4.78
2023-04-16T05:40:07.560Z,4.03
2023-04-16T05:43:10.508Z,4.53
2023-04-16T05:46:13.203Z,4.03
2023-04-16T05:49:18.722Z,4.33
2023-04-16T05:52:21.432Z,4.65
2023-04-16T05:55:24.284Z,4.65
2023-04-16T05:58:26.896Z,4.72
2023-04-16T06:01:29.916Z,4.20
2023-04-16T06:04:32.735Z,4.20
2023-04-16T06:07:35.227Z,4.30
2023-04-16T06:10:38.099Z,4.35
2023-04-16T06:13:40.672Z,3.60
2023-04-16T06:16:43.471Z,3.65
2023-04-16T06:19:46.350Z,3.80
2023-04-16T06:22:49.202Z,3.83
2023-04-16T06:25:51.826Z,4.12
2023-04-16T06:28:54.604Z,3.53
2023-04-16T06:31:57.234Z,3.85
2023-04-16T06:35:00.218Z,4.10
2023-04-16T06:38:02.818Z,3.62
2023-04-16T06:41:05.672Z,3.55
2023-04-16T06:44:08.500Z,3.50
2023-04-16T06:47:11.473Z,3.28
2023-04-16T06:50:14.149Z,3.20
2023-04-16T06:53:17.033Z,3.42
2023-04-16T06:56:19.619Z,3.80
2023-04-16T06:59:22.945Z,3.12
2023-04-16T07:02:25.999Z,2.97
2023-04-16T07:05:29.111Z,3.30
2023-04-16T07:08:31.911Z,3.10
2023-04-16T07:11:35.652Z,2.75
2023-04-16T07:14:38.286Z,2.85
2023-04-16T07:17:41.273Z,2.87
2023-04-16T07:20:43.858Z,2.60
2023-04-16T07:23:46.709Z,2.60
2023-04-16T07:26:49.161Z,2.50
2023-04-16T07:29:51.951Z,2.65
2023-04-16T07:32:55.837Z,2.78
2023-04-16T07:35:58.718Z,2.60
2023-04-16T07:39:01.666Z,2.67
2023-04-16T07:42:04.468Z,2.72
2023-04-16T07:45:07.541Z,2.50
2023-04-16T07:48:10.988Z,2.28
2023-04-16T07:51:14.117Z,2.50
2023-04-16T07:54:17.481Z,2.30
2023-04-16T07:57:20.547Z,2.75
2023-04-16T08:00:23.353Z,2.53
2023-04-16T08:03:26.657Z,2.22
2023-04-16T08:06:29.325Z,2.60
2023-04-16T08:09:32.232Z,2.40
2023-04-16T08:12:35.376Z,2.33
2023-04-16T08:15:38.259Z,2.47
2023-04-16T08:18:40.840Z,1.90
2023-04-16T08:21:43.999Z,2.50
2023-04-16T08:24:46.782Z,2.00
2023-04-16T08:27:49.634Z,1.65
2023-04-16T08:30:52.176Z,1.87
2023-04-16T08:33:54.988Z,1.65
2023-04-16T08:36:57.541Z,1.93
2023-04-16T08:40:01.189Z,1.58
2023-04-16T08:43:06.351Z,1.60
2023-04-16T08:46:09.567Z,1.30
2023-04-16T08:49:18.044Z,1.70
2023-04-16T08:52:23.548Z,1.40
2023-04-16T08:55:36.544Z,1.25
2023-04-16T08:58:39.885Z,1.55
2023-04-16T09:01:42.715Z,1.30
2023-04-16T09:04:47.220Z,1.40
2023-04-16T09:07:49.825Z,1.13
2023-04-16T09:10:53.140Z,0.90
2023-04-16T09:13:56.480Z,0.70
2023-04-16T09:17:02.541Z,0.50
2023-04-16T09:20:08.710Z,0.70
2023-04-16T09:23:15.093Z,1.03
2023-04-16T09:26:17.901Z,0.77
2023-04-16T09:29:36.958Z,0.73
2023-04-16T09:32:39.480Z,0.85
2023-04-16T09:35:47.625Z,0.98
2023-04-16T09:38:54.502Z,1.03
2023-04-16T09:41:58.962Z,1.00
2023-04-16T09:45:04.923Z,1.10
2023-04-16T09:48:08.651Z,1.20
2023-04-16T09:51:11.246Z,1.10
2023-04-16T09:54:14.611Z,1.23
2023-04-16T09:57:22.183Z,1.23
2023-04-16T10:00:25.158Z,1.25
2023-04-16T10:03:32.157Z,1.08
2023-04-16T10:06:34.804Z,1.00
2023-04-16T10:09:38.723Z,1.20
2023-04-16T10:12:41.704Z,1.20
2023-04-16T10:15:44.609Z,1.12
2023-04-16T10:18:47.490Z,1.20
2023-04-16T10:21:52.028Z,1.25
2023-04-16T10:24:54.882Z,1.53
2023-04-16T10:27:57.958Z,1.40
2023-04-16T10:31:02.164Z,1.60
2023-04-16T10:34:05.748Z,1.60
2023-04-16T10:37:08.449Z,1.48
2023-04-16T10:40:24.407Z,1.70
2023-04-16T10:43:28.953Z,1.60
2023-04-16T10:46:33.597Z,1.37
2023-04-16T10:49:36.963Z,1.60
2023-04-16T10:52:40.293Z,1.40
2023-04-16T10:55:56.812Z,1.57
2023-04-16T10:58:59.839Z,1.62
2023-04-16T11:02:08.645Z,1.50
2023-04-16T11:05:12.779Z,1.27
2023-04-16T11:08:18.757Z,1.37
2023-04-16T11:11:22.512Z,1.63
2023-04-16T11:14:25.175Z,1.02
2023-04-16T11:17:34.183Z,0.80
2023-04-16T11:20:41.554Z,0.30
2023-04-16T11:23:52.476Z,0.70
2023-04-16T11:26:56.463Z,0.50
2023-04-16T11:30:11.960Z,0.70
2023-04-16T11:33:14.790Z,0.98
2023-04-16T11:36:17.771Z,0.68
2023-04-16T11:39:24.638Z,0.95
2023-04-16T11:42:28.407Z,0.50
2023-04-16T11:45:31.231Z,0.40
2023-04-16T11:48:50.829Z,0.35
2023-04-16T11:51:53.579Z,0.68
2023-04-16T11:54:57.509Z,0.60
2023-04-16T11:58:12.007Z,0.60
2023-04-16T12:01:20.392Z,0.55
2023-04-16T12:04:25.662Z,0.60
2023-04-16T12:07:28.350Z,0.60
2023-04-16T12:10:35.181Z,0.60
2023-04-16T12:13:40.272Z,0.77
2023-04-16T12:16:43.279Z,0.50
2023-04-16T12:19:51.643Z,0.73
2023-04-16T12:22:57.060Z,0.50
2023-04-16T12:26:10.459Z,0.50
2023-04-16T12:29:25.179Z,0.53
2023-04-16T12:32:27.669Z,0.50
2023-04-16T12:35:32.122Z,0.60
2023-04-16T12:38:34.789Z,0.70
2023-04-16T12:41:39.218Z,0.45
2023-04-16T12:44:41.840Z,0.50
2023-04-16T12:47:44.725Z,0.47
2023-04-16T12:50:47.584Z,0.47
2023-04-16T12:53:50.698Z,0.50
2023-04-16T12:56:53.558Z,0.60
2023-04-16T12:59:57.523Z,0.50
2023-04-16T13:03:00.410Z,0.60
2023-04-16T13:06:04.081Z,0.70
2023-04-16T13:09:06.868Z,0.60
2023-04-16T13:12:09.808Z,0.68
2023-04-16T13:15:12.944Z,0.57
2023-04-16T13:18:15.952Z,0.77
2023-04-16T13:21:18.784Z,0.60
2023-04-16T13:24:23.206Z,0.77
2023-04-16T13:27:25.820Z,0.68
2023-04-16T13:30:33.444Z,0.60
2023-04-16T13:33:36.404Z,0.70
2023-04-16T13:36:39.268Z,0.68
2023-04-16T13:39:42.170Z,1.00
2023-04-16T13:42:44.985Z,0.60
2023-04-16T13:45:49.649Z,0.50
2023-04-16T13:48:52.770Z,0.40
2023-04-16T13:51:55.787Z,0.50
2023-04-16T13:55:00.138Z,0.50
2023-04-16T13:58:03.166Z,0.62
2023-04-16T14:01:06.085Z,0.50
2023-04-16T14:04:09.072Z,0.37
2023-04-16T14:07:11.858Z,0.50
2023-04-16T14:10:14.773Z,0.40
2023-04-16T14:13:17.316Z,0.40
2023-04-16T14:16:20.447Z,0.40
2023-04-16T14:19:23.333Z,0.70
2023-04-16T14:22:26.356Z,0.52
2023-04-16T14:25:28.989Z,0.52
2023-04-16T14:28:32.061Z,0.47
2023-04-16T14:31:35.038Z,0.43
2023-04-16T14:34:37.978Z,0.60
2023-04-16T14:37:41.384Z,0.47
2023-04-16T14:40:44.103Z,0.70
2023-04-16T14:43:46.930Z,0.60
2023-04-16T14:46:49.703Z,0.70
2023-04-16T14:49:52.327Z,0.60
2023-04-16T14:52:55.898Z,0.30
2023-04-16T14:55:59.084Z,0.60
2023-04-16T14:59:02.055Z,0.70
2023-04-16T15:02:04.797Z,1.10
2023-04-16T15:05:10.171Z,0.10
2023-04-16T15:08:12.726Z,0.00
2023-04-16T15:11:15.642Z,0.55
2023-04-16T15:14:18.747Z,0.37
2023-04-16T15:17:21.720Z,4.83
2023-04-16T15:20:24.501Z,0.40
2023-04-16T15:23:27.722Z,1.40
2023-04-16T15:26:30.714Z,0.60
2023-04-16T15:29:34.121Z,1.80
2023-04-16T15:32:36.739Z,0.83
2023-04-16T15:35:41.368Z,0.62
2023-04-16T15:38:44.125Z,0.70
2023-04-16T15:42:00.783Z,2.83
2023-04-16T15:45:05.356Z,1.30
2023-04-16T15:48:11.619Z,0.50
2023-04-16T15:51:15.004Z,0.90
2023-04-16T15:54:20.776Z,0.60
2023-04-16T15:57:23.881Z,0.68
2023-04-16T16:00:27.486Z,0.40
2023-04-16T16:03:32.212Z,0.40
2023-04-16T16:06:35.303Z,0.60
2023-04-16T16:09:38.600Z,0.62
2023-04-16T16:12:41.476Z,0.43
2023-04-16T16:15:44.831Z,0.40
2023-04-16T16:18:47.768Z,0.50
2023-04-16T16:21:50.601Z,0.70
2023-04-16T16:24:55.733Z,0.68
2023-04-16T16:27:59.471Z,0.40
2023-04-16T16:31:03.994Z,0.50
2023-04-16T16:34:07.002Z,0.60
2023-04-16T16:37:09.651Z,0.80
2023-04-16T16:40:12.784Z,0.80
2023-04-16T16:43:15.607Z,0.60
2023-04-16T16:46:19.770Z,0.62
2023-04-16T16:49:22.597Z,0.40
2023-04-16T16:52:26.123Z,0.50
2023-04-16T16:55:28.811Z,0.50
2023-04-16T16:58:31.670Z,0.50
2023-04-16T17:01:34.925Z,0.65
2023-04-16T17:04:38.286Z,0.60
2023-04-16T17:07:41.312Z,0.50
2023-04-16T17:10:44.579Z,0.60
2023-04-16T17:13:47.622Z,0.50
2023-04-16T17:16:50.718Z,0.55
2023-04-16T17:19:54.051Z,0.60
2023-04-16T17:22:57.179Z,0.50
2023-04-16T17:26:00.025Z,0.80
2023-04-16T17:29:04.451Z,0.50
2023-04-16T17:32:07.031Z,0.45
2023-04-16T17:35:10.948Z,0.30
2023-04-16T17:38:13.710Z,0.60
2023-04-16T17:41:16.944Z,0.52
2023-04-16T17:44:20.028Z,0.62
2023-04-16T17:47:23.169Z,0.80
2023-04-16T17:50:27.704Z,0.77
2023-04-16T17:53:30.800Z,0.55
2023-04-16T17:56:33.622Z,0.60
2023-04-16T17:59:36.938Z,0.70
2023-04-16T18:02:43.622Z,0.90
2023-04-16T18:05:46.519Z,0.70
2023-04-16T18:08:49.300Z,0.88
2023-04-16T18:11:52.499Z,0.55
2023-04-16T18:14:55.328Z,0.80
2023-04-16T18:17:58.370Z,0.80
2023-04-16T18:21:01.291Z,0.87
2023-04-16T18:24:04.216Z,0.70
2023-04-16T18:27:07.338Z,0.65
2023-04-16T18:30:20.173Z,0.90
2023-04-16T18:33:52.596Z,0.82
2023-04-16T18:36:52.439Z,0.80
2023-04-16T18:39:57.774Z,1.00
2023-04-16T18:43:01.401Z,0.70
2023-04-16T18:46:04.240Z,0.80
2023-04-16T18:49:07.720Z,0.90
2023-04-16T18:52:10.654Z,1.00
2023-04-16T18:55:14.663Z,0.70
2023-04-16T18:58:18.335Z,0.82
2023-04-16T19:01:21.642Z,1.10
2023-04-16T19:04:24.375Z,1.02
2023-04-16T19:07:27.354Z,1.00
2023-04-16T19:10:30.370Z,0.90
2023-04-16T19:13:33.876Z,0.90
2023-04-16T19:16:38.808Z,1.05
2023-04-16T19:19:42.660Z,1.10
2023-04-16T19:22:46.237Z,1.00
2023-04-16T19:25:49.549Z,0.93
2023-04-16T19:28:52.434Z,1.00
2023-04-16T19:31:56.113Z,1.25
2023-04-16T19:34:59.182Z,0.85
2023-04-16T19:38:02.266Z,1.00
2023-04-16T19:41:05.024Z,0.82
2023-04-16T19:44:08.265Z,1.00
2023-04-16T19:47:12.136Z,0.93
2023-04-16T19:50:15.957Z,0.98
2023-04-16T19:53:18.832Z,1.07
2023-04-16T19:56:22.350Z,1.05
2023-04-16T19:59:28.078Z,0.70
2023-04-16T20:02:31.728Z,0.90
2023-04-16T20:05:35.222Z,0.90
2023-04-16T20:08:39.262Z,0.90
2023-04-16T20:11:42.777Z,0.95
2023-04-16T20:14:45.326Z,0.70
2023-04-16T20:17:48.433Z,0.90
2023-04-16T20:20:51.373Z,0.90
2023-04-16T20:23:54.349Z,0.87
2023-04-16T20:26:56.965Z,0.88
2023-04-16T20:30:00.954Z,0.82
2023-04-16T20:33:03.997Z,1.02
2023-04-16T20:36:08.071Z,0.90
2023-04-16T20:39:11.716Z,1.00
2023-04-16T20:42:14.548Z,1.10
2023-04-16T20:45:17.109Z,0.85
2023-04-16T20:48:21.422Z,0.93
2023-04-16T20:51:24.156Z,0.90
2023-04-16T20:54:27.258Z,0.90
2023-04-16T20:57:32.115Z,0.80
2023-04-16T21:00:35.292Z,1.10
2023-04-16T21:03:38.161Z,0.88
2023-04-16T21:06:43.046Z,0.93
2023-04-16T21:09:47.933Z,0.80
2023-04-16T21:12:50.978Z,1.00
2023-04-16T21:15:53.527Z,1.00
2023-04-16T21:18:58.019Z,1.02
2023-04-16T21:22:02.587Z,1.08
2023-04-16T21:25:05.904Z,1.07
2023-04-16T21:28:08.638Z,0.93
2023-04-16T21:31:11.746Z,1.05
2023-04-16T21:34:14.370Z,0.98
2023-04-16T21:37:17.281Z,1.17
2023-04-16T21:40:19.960Z,0.77
2023-04-16T21:43:23.586Z,0.73
2023-04-16T21:46:26.780Z,0.93
2023-04-16T21:49:30.072Z,1.08
2023-04-16T21:52:32.958Z,1.10
2023-04-16T21:55:36.347Z,1.00
2023-04-16T21:58:38.871Z,0.90
2023-04-16T22:01:42.283Z,0.90
2023-04-16T22:04:45.158Z,1.00
2023-04-16T22:07:47.768Z,0.70
2023-04-16T22:10:50.834Z,0.90
2023-04-16T22:13:57.661Z,0.75
2023-04-16T22:17:01.761Z,0.73
2023-04-16T22:20:09.397Z,0.90
2023-04-16T22:23:12.629Z,0.93
2023-04-16T22:26:15.122Z,0.77
2023-04-16T22:29:17.950Z,1.05
2023-04-16T22:32:20.819Z,0.88
2023-04-16T22:35:23.688Z,0.80
2023-04-16T22:38:26.245Z,1.10
2023-04-16T22:41:29.321Z,0.80
2023-04-16T22:44:31.894Z,1.08
2023-04-16T22:47:34.785Z,0.88
2023-04-16T22:50:37.353Z,1.00
2023-04-16T22:53:40.420Z,1.83
2023-04-16T22:56:43.039Z,0.90
2023-04-16T22:59:45.830Z,0.90
2023-04-16T23:02:48.420Z,1.40
2023-04-16T23:05:51.287Z,1.05
2023-04-16T23:08:54.118Z,0.98
2023-04-16T23:11:57.482Z,1.10
2023-04-16T23:15:00.763Z,1.48
2023-04-16T23:18:03.690Z,0.80
2023-04-16T23:21:06.238Z,1.10
2023-04-16T23:24:09.474Z,0.82
2023-04-16T23:27:12.055Z,0.73
2023-04-16T23:30:15.086Z,1.00
2023-04-16T23:33:17.776Z,1.00
2023-04-16T23:36:20.816Z,1.00
2023-04-16T23:39:23.974Z,0.90
2023-04-16T23:42:26.797Z,1.13
2023-04-16T23:45:29.412Z,0.93
2023-04-16T23:48:32.490Z,1.10
2023-04-16T23:51:35.090Z,0.98
2023-04-16T23:54:38.283Z,1.00
2023-04-16T23:57:40.738Z,1.00
